Time;durP1;ratioP1;P1;durP2;ratioP2;P2;SDS_P1;SDS_P2;PMS_P1;PMS_P2;Temp;Humidity;BMP_temperature;BMP_pressure;BME280_temperature;BME280_humidity;BME280_pressure;Samples;Min_cycle;Max_cycle;Signal;HPM_P1;HPM_P2
2023/01/11 00:01:57;;;;;;;3.53;2.30;;;;;;;;;;5013352;28;20219;-35
2023/01/11 00:04:28;;;;;;;6.10;2.37;;;;;;;;;;5012774;28;20203;-35
2023/01/11 00:06:56;;;;;;;4.97;2.50;;;;;;;;;;5009433;28;20258;-37
2023/01/11 00:09:23;;;;;;;4.10;2.27;;;;;;;;;;4996842;28;20215;-35
2023/01/11 00:11:50;;;;;;;2.70;2.10;;;;;;;;;;5013594;28;20219;-32
2023/01/11 00:14:18;;;;;;;4.07;2.00;;;;;;;;;;5007541;28;20207;-31
2023/01/11 00:16:45;;;;;;;4.07;2.23;;;;;;;;;;5012483;28;20218;-41
2023/01/11 00:19:12;;;;;;;2.90;2.17;;;;;;;;;;5013361;28;20294;-30
2023/01/11 00:21:40;;;;;;;3.93;2.40;;;;;;;;;;5013921;28;20249;-39
2023/01/11 00:24:07;;;;;;;2.87;2.40;;;;;;;;;;5002295;28;20211;-37
2023/01/11 00:26:34;;;;;;;2.90;2.57;;;;;;;;;;5011886;28;20203;-39
2023/01/11 00:29:28;;;;;;;6.87;2.47;;;;;;;;;;5000890;28;20212;-36
2023/01/11 00:31:56;;;;;;;4.37;2.27;;;;;;;;;;5011557;28;20259;-36
2023/01/11 00:34:23;;;;;;;2.83;1.97;;;;;;;;;;5013196;28;20210;-37
2023/01/11 00:36:51;;;;;;;2.77;2.10;;;;;;;;;;5009426;28;20204;-41
2023/01/11 00:39:18;;;;;;;6.70;2.50;;;;;;;;;;5002814;28;20872;-36
2023/01/11 00:50:06;;;;;;;4.23;2.80;;;;;;;;;;5012926;28;20486;-35
2023/01/11 00:52:33;;;;;;;3.37;2.30;;;;;;;;;;5002182;28;20240;-39
2023/01/11 00:55:00;;;;;;;4.63;2.07;;;;;;;;;;5010405;28;20208;-40
2023/01/11 00:57:27;;;;;;;3.23;2.07;;;;;;;;;;5012981;28;20200;-38
2023/01/11 00:59:55;;;;;;;2.07;1.87;;;;;;;;;;5006040;28;20213;-34
2023/01/11 01:02:23;;;;;;;5.03;2.27;;;;;;;;;;5012047;28;20231;-34
2023/01/11 01:04:50;;;;;;;3.53;2.37;;;;;;;;;;5012219;28;20215;-36
2023/01/11 01:07:17;;;;;;;2.10;1.83;;;;;;;;;;5005793;28;20212;-36
2023/01/11 01:09:45;;;;;;;3.90;2.47;;;;;;;;;;5002974;28;20214;-36
2023/01/11 01:14:24;;;;;;;3.93;2.00;;;;;;;;;;5012726;28;20289;-38
2023/01/11 01:14:58;;;;;;;3.30;2.27;;;;;;;;;;4998745;28;20250;-38
2023/01/11 01:17:26;;;;;;;5.53;2.43;;;;;;;;;;5007942;28;20658;-34
2023/01/11 01:19:53;;;;;;;1.90;1.80;;;;;;;;;;5010987;28;20312;-38
2023/01/11 01:22:20;;;;;;;3.27;2.17;;;;;;;;;;5012614;28;20223;-34
2023/01/11 01:24:48;;;;;;;3.03;2.00;;;;;;;;;;5000532;28;20204;-37
2023/01/11 01:27:16;;;;;;;2.50;1.80;;;;;;;;;;5007182;28;20210;-34
2023/01/11 01:29:43;;;;;;;3.50;2.13;;;;;;;;;;5001474;28;20214;-36
2023/01/11 01:32:10;;;;;;;2.93;2.07;;;;;;;;;;5007183;28;20678;-36
2023/01/11 01:34:39;;;;;;;4.13;2.37;;;;;;;;;;5010437;28;20211;-37
2023/01/11 01:37:06;;;;;;;3.47;2.27;;;;;;;;;;5006419;28;20520;-38
2023/01/11 01:39:34;;;;;;;2.63;2.13;;;;;;;;;;5008633;28;20218;-33
2023/01/11 01:42:01;;;;;;;3.03;1.70;;;;;;;;;;5011756;28;20227;-42
2023/01/11 01:44:47;;;;;;;2.87;1.63;;;;;;;;;;5000381;28;20203;-33
2023/01/11 01:47:14;;;;;;;2.53;1.70;;;;;;;;;;5011404;28;20200;-33
2023/01/11 01:49:44;;;;;;;2.57;2.10;;;;;;;;;;5011303;28;20209;-34
2023/01/11 01:52:12;;;;;;;3.30;1.83;;;;;;;;;;5008950;28;20238;-32
2023/01/11 01:54:42;;;;;;;2.00;1.80;;;;;;;;;;5005276;28;20207;-36
2023/01/11 01:57:11;;;;;;;2.27;1.60;;;;;;;;;;5010978;28;20206;-39
2023/01/11 01:59:38;;;;;;;2.40;1.80;;;;;;;;;;4999944;28;20966;-34
2023/01/11 02:02:05;;;;;;;1.47;1.33;;;;;;;;;;4996745;28;20234;-30
2023/01/11 02:04:34;;;;;;;2.93;1.63;;;;;;;;;;5007444;28;20203;-37
2023/01/11 02:07:04;;;;;;;2.63;1.90;;;;;;;;;;5011427;28;20206;-36
2023/01/11 02:09:35;;;;;;;1.90;1.53;;;;;;;;;;5011740;28;20242;-35
2023/01/11 02:12:02;;;;;;;4.70;1.93;;;;;;;;;;5006565;28;20237;-39
2023/01/11 02:14:31;;;;;;;3.00;2.13;;;;;;;;;;5002281;28;20203;-35
2023/01/11 02:16:59;;;;;;;1.70;1.60;;;;;;;;;;5010512;28;20200;-32
2023/01/11 02:19:34;;;;;;;1.97;1.50;;;;;;;;;;5010690;28;20210;-38
2023/01/11 02:22:14;;;;;;;2.53;1.60;;;;;;;;;;5005780;28;20229;-37
2023/01/11 02:24:52;;;;;;;1.93;1.63;;;;;;;;;;5006278;28;20207;-35
2023/01/11 02:27:34;;;;;;;2.73;2.00;;;;;;;;;;5003538;28;20195;-36
2023/01/11 02:30:12;;;;;;;3.10;1.70;;;;;;;;;;5007327;28;20261;-39
2023/01/11 02:32:48;;;;;;;3.13;1.57;;;;;;;;;;5009963;28;20293;-34
2023/01/11 02:35:21;;;;;;;4.60;1.67;;;;;;;;;;5011379;28;20207;-38
2023/01/11 02:37:54;;;;;;;4.73;1.87;;;;;;;;;;5006228;28;20266;-35
2023/01/11 02:40:25;;;;;;;1.90;1.53;;;;;;;;;;5007095;28;20211;-38
2023/01/11 02:45:45;;;;;;;3.63;1.67;;;;;;;;;;5003150;28;20203;-31
2023/01/11 02:48:15;;;;;;;2.40;1.70;;;;;;;;;;5011178;28;20192;-40
2023/01/11 02:50:44;;;;;;;1.97;1.70;;;;;;;;;;5010960;28;20213;-37
2023/01/11 02:53:17;;;;;;;2.70;1.60;;;;;;;;;;5001678;28;20223;-36
2023/01/11 02:55:47;;;;;;;2.57;1.73;;;;;;;;;;5002824;28;20207;-37
2023/01/11 02:58:16;;;;;;;5.30;1.80;;;;;;;;;;5003835;28;20207;-41
2023/01/11 03:00:45;;;;;;;2.13;1.83;;;;;;;;;;5003068;28;20214;-32
2023/01/11 03:03:14;;;;;;;7.50;1.83;;;;;;;;;;5010085;28;20206;-33
2023/01/11 03:05:44;;;;;;;1.83;1.50;;;;;;;;;;5011563;28;20310;-42
2023/01/11 03:08:17;;;;;;;2.10;1.60;;;;;;;;;;5001263;28;20205;-34
2023/01/11 03:10:58;;;;;;;3.43;1.70;;;;;;;;;;5009144;28;20203;-33
2023/01/11 03:13:29;;;;;;;3.90;1.63;;;;;;;;;;5002922;28;20230;-31
2023/01/11 03:16:04;;;;;;;2.57;1.83;;;;;;;;;;4998259;28;20197;-36
2023/01/11 03:18:37;;;;;;;3.57;2.00;;;;;;;;;;5012452;28;20199;-37
2023/01/11 03:21:08;;;;;;;3.70;2.00;;;;;;;;;;5011865;28;20225;-36
2023/01/11 03:23:38;;;;;;;4.90;1.70;;;;;;;;;;4995838;28;20215;-35
2023/01/11 03:26:09;;;;;;;3.80;1.87;;;;;;;;;;5004486;28;20211;-35
2023/01/11 03:28:39;;;;;;;3.07;1.60;;;;;;;;;;5001743;28;20211;-32
2023/01/11 03:31:10;;;;;;;2.73;1.80;;;;;;;;;;5001601;28;20233;-30
2023/01/11 03:33:40;;;;;;;2.20;1.60;;;;;;;;;;5008915;28;20231;-37
2023/01/11 03:36:10;;;;;;;4.33;2.40;;;;;;;;;;4993314;28;20214;-34
2023/01/11 03:38:38;;;;;;;1.90;1.63;;;;;;;;;;5004731;28;20215;-38
2023/01/11 03:41:08;;;;;;;2.47;1.90;;;;;;;;;;5012534;28;20227;-36
2023/01/11 03:43:37;;;;;;;3.53;1.63;;;;;;;;;;5007355;28;20214;-35
2023/01/11 03:46:06;;;;;;;2.00;1.67;;;;;;;;;;5002182;28;20211;-35
2023/01/11 03:48:37;;;;;;;2.43;1.53;;;;;;;;;;5013409;28;20206;-41
2023/01/11 03:51:06;;;;;;;2.10;1.50;;;;;;;;;;5012979;28;20223;-36
2023/01/11 03:53:35;;;;;;;3.63;1.77;;;;;;;;;;5006728;28;20231;-32
2023/01/11 03:56:04;;;;;;;2.53;1.30;;;;;;;;;;5009142;28;20207;-33
2023/01/11 03:58:31;;;;;;;2.00;1.70;;;;;;;;;;5008891;28;20616;-34
2023/01/11 04:00:59;;;;;;;3.27;1.83;;;;;;;;;;5006026;28;20230;-36
2023/01/11 04:03:27;;;;;;;2.93;1.80;;;;;;;;;;5010802;28;20214;-39
2023/01/11 04:05:57;;;;;;;3.63;2.00;;;;;;;;;;5013602;28;20223;-37
2023/01/11 04:08:24;;;;;;;2.27;1.40;;;;;;;;;;5005143;28;20199;-37
2023/01/11 04:10:52;;;;;;;4.33;1.63;;;;;;;;;;5010635;28;20231;-37
2023/01/11 04:13:19;;;;;;;3.23;1.30;;;;;;;;;;5005603;28;20223;-39
2023/01/11 04:15:46;;;;;;;1.60;1.50;;;;;;;;;;5000360;28;20203;-35
2023/01/11 04:18:13;;;;;;;1.97;1.60;;;;;;;;;;5013487;28;20214;-39
2023/01/11 04:20:41;;;;;;;3.40;2.17;;;;;;;;;;5012902;28;20211;-35
2023/01/11 04:23:10;;;;;;;1.60;1.50;;;;;;;;;;5002178;28;20300;-39
2023/01/11 04:25:37;;;;;;;2.50;1.70;;;;;;;;;;5012386;28;20207;-36
2023/01/11 04:28:04;;;;;;;2.80;2.00;;;;;;;;;;5010046;28;20223;-33
2023/01/11 04:30:31;;;;;;;2.43;1.63;;;;;;;;;;5002841;28;20216;-31
2023/01/11 04:32:58;;;;;;;2.77;1.40;;;;;;;;;;5012232;28;20223;-36
2023/01/11 04:35:26;;;;;;;1.50;1.40;;;;;;;;;;5010583;28;20212;-34
2023/01/11 04:37:53;;;;;;;2.37;1.63;;;;;;;;;;5010711;28;20219;-34
2023/01/11 04:40:22;;;;;;;2.00;1.27;;;;;;;;;;5012477;28;20253;-40
2023/01/11 04:42:48;;;;;;;5.80;1.70;;;;;;;;;;5004366;28;20223;-35
2023/01/11 04:45:15;;;;;;;2.93;1.83;;;;;;;;;;5002036;28;20211;-38
2023/01/11 04:47:42;;;;;;;1.70;1.53;;;;;;;;;;5011724;28;20208;-37
2023/01/11 04:50:10;;;;;;;3.80;1.70;;;;;;;;;;5012636;28;20211;-32
2023/01/11 04:52:40;;;;;;;2.43;1.50;;;;;;;;;;5001673;28;20227;-38
2023/01/11 04:55:07;;;;;;;2.70;1.60;;;;;;;;;;5007703;28;20203;-37
2023/01/11 04:57:36;;;;;;;2.63;1.37;;;;;;;;;;5010216;28;20670;-37
2023/01/11 05:00:06;;;;;;;2.30;1.50;;;;;;;;;;5002449;28;20219;-32
2023/01/11 05:02:33;;;;;;;2.00;1.47;;;;;;;;;;5008178;28;20226;-35
2023/01/11 05:05:01;;;;;;;3.37;1.80;;;;;;;;;;5003338;28;20227;-39
2023/01/11 05:07:28;;;;;;;4.63;2.10;;;;;;;;;;5001422;28;20206;-38
2023/01/11 05:09:55;;;;;;;1.63;1.50;;;;;;;;;;5011777;28;20196;-37
2023/01/11 05:12:26;;;;;;;2.10;1.90;;;;;;;;;;5007555;28;20231;-41
2023/01/11 05:14:55;;;;;;;1.67;1.57;;;;;;;;;;5001859;28;20215;-33
2023/01/11 05:17:23;;;;;;;1.70;1.60;;;;;;;;;;5009390;28;20226;-40
2023/01/11 05:19:50;;;;;;;1.97;1.63;;;;;;;;;;5004524;28;20208;-33
2023/01/11 05:22:17;;;;;;;2.80;1.50;;;;;;;;;;5010716;28;20231;-40
2023/01/11 05:24:44;;;;;;;3.93;1.70;;;;;;;;;;5012187;28;20200;-35
2023/01/11 05:27:11;;;;;;;5.33;3.70;;;;;;;;;;5006394;28;20204;-38
2023/01/11 05:29:38;;;;;;;3.43;2.27;;;;;;;;;;4999314;28;20208;-38
2023/01/11 05:32:07;;;;;;;2.00;1.77;;;;;;;;;;4999899;28;20223;-36
2023/01/11 05:34:34;;;;;;;3.30;1.40;;;;;;;;;;5009064;28;20751;-34
2023/01/11 05:37:01;;;;;;;2.53;1.63;;;;;;;;;;5012080;28;20203;-32
2023/01/11 05:39:28;;;;;;;3.27;1.70;;;;;;;;;;5011737;28;20217;-36
2023/01/11 05:41:55;;;;;;;1.53;1.33;;;;;;;;;;5004407;28;20230;-33
2023/01/11 05:47:08;;;;;;;2.20;1.70;;;;;;;;;;5005991;28;21121;-36
2023/01/11 05:49:36;;;;;;;3.27;1.77;;;;;;;;;;5011544;28;20293;-36
2023/01/11 05:52:03;;;;;;;2.90;1.70;;;;;;;;;;4992431;28;20234;-40
2023/01/11 05:54:30;;;;;;;3.60;2.07;;;;;;;;;;5010924;28;20230;-34
2023/01/11 05:56:57;;;;;;;2.63;1.70;;;;;;;;;;5012270;28;20203;-35
2023/01/11 05:59:25;;;;;;;1.60;1.50;;;;;;;;;;5004629;28;20338;-37
2023/01/11 06:01:52;;;;;;;2.37;1.60;;;;;;;;;;5009605;28;20227;-36
2023/01/11 06:04:21;;;;;;;4.07;1.40;;;;;;;;;;5012080;28;20203;-37
2023/01/11 06:06:48;;;;;;;3.60;1.83;;;;;;;;;;5002670;28;20219;-37
2023/01/11 06:09:15;;;;;;;2.57;1.90;;;;;;;;;;5010057;28;20207;-42
2023/01/11 06:11:42;;;;;;;2.47;1.83;;;;;;;;;;5010583;28;20223;-38
2023/01/11 06:14:09;;;;;;;2.00;1.80;;;;;;;;;;4996872;28;20363;-33
2023/01/11 06:16:36;;;;;;;3.77;1.70;;;;;;;;;;4998963;28;20200;-35
2023/01/11 06:19:03;;;;;;;1.50;1.40;;;;;;;;;;5012185;28;20195;-37
2023/01/11 06:21:32;;;;;;;2.53;2.00;;;;;;;;;;5011454;28;20604;-36
2023/01/11 06:23:59;;;;;;;2.30;2.00;;;;;;;;;;5010246;28;20200;-36
2023/01/11 06:26:26;;;;;;;3.77;2.27;;;;;;;;;;5012618;28;20199;-39
2023/01/11 06:28:53;;;;;;;2.33;2.10;;;;;;;;;;5003779;28;20207;-35
2023/01/11 06:31:20;;;;;;;1.97;1.70;;;;;;;;;;5011119;28;20616;-36
2023/01/11 06:33:48;;;;;;;3.57;2.50;;;;;;;;;;5011916;28;20227;-36
2023/01/11 06:36:15;;;;;;;3.97;2.27;;;;;;;;;;5008230;28;20214;-38
2023/01/11 06:38:44;;;;;;;3.43;2.63;;;;;;;;;;5009803;28;20210;-38
2023/01/11 06:41:12;;;;;;;2.30;2.10;;;;;;;;;;5011044;28;20223;-31
2023/01/11 06:43:40;;;;;;;2.00;1.80;;;;;;;;;;5004301;28;20211;-30
2023/01/11 06:46:10;;;;;;;3.53;2.20;;;;;;;;;;5004989;28;20278;-37
2023/01/11 06:48:37;;;;;;;4.23;2.60;;;;;;;;;;5010690;28;20321;-35
2023/01/11 06:51:04;;;;;;;3.80;1.93;;;;;;;;;;4993951;28;20231;-37
2023/01/11 06:53:31;;;;;;;2.37;2.00;;;;;;;;;;4990471;28;20215;-38
2023/01/11 06:56:00;;;;;;;3.50;2.00;;;;;;;;;;5008084;28;20207;-38
2023/01/11 06:58:27;;;;;;;2.37;1.90;;;;;;;;;;5003312;28;20211;-36
2023/01/11 07:00:55;;;;;;;3.33;2.03;;;;;;;;;;5002919;28;20223;-37
2023/01/11 07:03:23;;;;;;;2.73;2.00;;;;;;;;;;5008974;28;20239;-36
2023/01/11 07:05:51;;;;;;;2.20;1.80;;;;;;;;;;5011817;28;20211;-32
2023/01/11 07:08:18;;;;;;;3.87;2.07;;;;;;;;;;5001072;28;20209;-34
2023/01/11 07:10:45;;;;;;;3.10;2.20;;;;;;;;;;4997573;28;20203;-40
2023/01/11 07:13:16;;;;;;;2.43;1.77;;;;;;;;;;4999622;28;20204;-30
2023/01/11 07:18:54;;;;;;;3.30;2.00;;;;;;;;;;5002209;28;20178;-34
2023/01/11 07:21:21;;;;;;;3.20;1.80;;;;;;;;;;5007571;28;20731;-31
2023/01/11 07:23:48;;;;;;;2.20;1.77;;;;;;;;;;5005009;28;20211;-37
2023/01/11 07:26:21;;;;;;;3.13;1.70;;;;;;;;;;5010778;28;20207;-35
2023/01/11 07:28:50;;;;;;;2.33;1.60;;;;;;;;;;4996703;28;20684;-33
2023/01/11 07:31:17;;;;;;;3.37;1.63;;;;;;;;;;5000307;28;20223;-34
2023/01/11 07:33:44;;;;;;;4.13;1.57;;;;;;;;;;5009842;28;20223;-35
2023/01/11 07:36:11;;;;;;;2.67;1.73;;;;;;;;;;5004949;28;20745;-38
2023/01/11 07:38:38;;;;;;;1.87;1.70;;;;;;;;;;5003981;28;20219;-36
2023/01/11 07:43:10;;;;;;;2.00;1.50;;;;;;;;;;5009071;28;20227;-32
2023/01/11 07:43:53;;;;;;;3.43;1.70;;;;;;;;;;4996039;28;20218;-36
2023/01/11 07:46:20;;;;;;;2.70;1.70;;;;;;;;;;5003043;28;20294;-30
2023/01/11 07:48:47;;;;;;;2.83;1.93;;;;;;;;;;5008781;28;20218;-35
2023/01/11 07:51:16;;;;;;;4.90;3.20;;;;;;;;;;5004326;28;20592;-39
2023/01/11 07:53:43;;;;;;;4.90;2.57;;;;;;;;;;4990793;28;20230;-36
2023/01/11 07:56:11;;;;;;;3.23;2.50;;;;;;;;;;5011627;28;20215;-34
2023/01/11 07:58:38;;;;;;;3.17;2.27;;;;;;;;;;4995627;28;20216;-34
2023/01/11 08:01:06;;;;;;;7.77;2.30;;;;;;;;;;5007901;28;20701;-34
2023/01/11 08:03:33;;;;;;;4.03;2.30;;;;;;;;;;5008849;28;20230;-37
2023/01/11 08:06:00;;;;;;;4.23;2.47;;;;;;;;;;5011641;28;20211;-31
2023/01/11 08:08:27;;;;;;;4.90;2.03;;;;;;;;;;5003495;28;20215;-35
2023/01/11 08:16:22;;;;;;;3.43;2.60;;;;;;;;;;5008003;28;20281;-35
2023/01/11 08:18:49;;;;;;;2.47;2.23;;;;;;;;;;5008637;28;20212;-35
2023/01/11 08:21:17;;;;;;;4.27;2.40;;;;;;;;;;5012199;28;20233;-33
2023/01/11 08:23:44;;;;;;;2.43;2.00;;;;;;;;;;5005523;28;20293;-38
2023/01/11 08:26:15;;;;;;;3.37;2.67;;;;;;;;;;5010834;28;20207;-35
2023/01/11 08:28:42;;;;;;;4.23;2.40;;;;;;;;;;5003001;28;20214;-37
2023/01/11 08:31:10;;;;;;;3.60;2.80;;;;;;;;;;5012070;28;20249;-32
2023/01/11 08:33:38;;;;;;;5.47;2.70;;;;;;;;;;5012394;28;20216;-34
2023/01/11 08:36:06;;;;;;;3.70;2.80;;;;;;;;;;5009007;28;20205;-33
2023/01/11 08:38:33;;;;;;;3.47;2.40;;;;;;;;;;5004598;28;20215;-32
2023/01/11 08:41:00;;;;;;;2.77;2.27;;;;;;;;;;5009978;28;20226;-36
2023/01/11 08:43:27;;;;;;;2.13;1.90;;;;;;;;;;5006551;28;20376;-33
2023/01/11 08:45:54;;;;;;;3.30;2.27;;;;;;;;;;5002658;28;20207;-33
2023/01/11 08:48:21;;;;;;;5.97;2.07;;;;;;;;;;5009247;28;20688;-38
2023/01/11 08:50:50;;;;;;;4.80;2.37;;;;;;;;;;5002039;28;20199;-40
2023/01/11 08:53:17;;;;;;;4.60;3.13;;;;;;;;;;5008377;28;20218;-34
2023/01/11 08:55:44;;;;;;;4.97;2.47;;;;;;;;;;5005969;28;20220;-34
2023/01/11 08:58:11;;;;;;;3.77;2.90;;;;;;;;;;5007538;28;20207;-31
2023/01/11 09:00:38;;;;;;;3.40;2.47;;;;;;;;;;5005354;28;20732;-41
2023/01/11 09:03:09;;;;;;;5.60;2.70;;;;;;;;;;5000296;28;20208;-37
2023/01/11 09:05:37;;;;;;;5.17;2.90;;;;;;;;;;5005123;28;20242;-36
2023/01/11 09:08:06;;;;;;;4.57;2.60;;;;;;;;;;5010867;28;20207;-32
2023/01/11 09:10:33;;;;;;;4.20;3.00;;;;;;;;;;5010190;28;20207;-31
2023/01/11 09:13:01;;;;;;;2.60;2.20;;;;;;;;;;5002042;28;20274;-34
2023/01/11 09:15:28;;;;;;;5.47;2.93;;;;;;;;;;5006033;28;20215;-37
2023/01/11 09:17:55;;;;;;;5.70;3.13;;;;;;;;;;5010519;28;20195;-33
2023/01/11 09:20:24;;;;;;;4.57;2.73;;;;;;;;;;5011609;28;20209;-34
2023/01/11 09:22:52;;;;;;;6.57;3.77;;;;;;;;;;5001272;28;20250;-39
2023/01/11 09:25:21;;;;;;;9.17;4.53;;;;;;;;;;5002049;28;20196;-33
2023/01/11 09:27:48;;;;;;;8.83;4.17;;;;;;;;;;5002253;28;20222;-35
2023/01/11 09:30:17;;;;;;;9.07;4.43;;;;;;;;;;5002914;28;20200;-34
2023/01/11 09:32:44;;;;;;;7.47;4.17;;;;;;;;;;5010533;28;20224;-35
2023/01/11 09:35:11;;;;;;;5.87;3.70;;;;;;;;;;5011474;28;20602;-36
2023/01/11 09:37:43;;;;;;;7.57;3.70;;;;;;;;;;5009435;28;20210;-35
2023/01/11 09:40:13;;;;;;;6.57;4.27;;;;;;;;;;5005560;28;20261;-37
2023/01/11 09:42:43;;;;;;;6.50;4.67;;;;;;;;;;5010369;28;20223;-30
2023/01/11 09:45:13;;;;;;;7.10;4.07;;;;;;;;;;5006252;28;20298;-38
2023/01/11 09:47:41;;;;;;;6.73;3.77;;;;;;;;;;5012866;28;20210;-30
2023/01/11 09:50:13;;;;;;;8.50;4.37;;;;;;;;;;5008442;28;20312;-37
2023/01/11 09:52:42;;;;;;;6.13;4.00;;;;;;;;;;4992519;28;20303;-38
2023/01/11 09:55:14;;;;;;;7.33;4.57;;;;;;;;;;5007360;28;20224;-36
2023/01/11 09:57:50;;;;;;;6.97;4.30;;;;;;;;;;5009391;28;20290;-35
2023/01/11 10:00:21;;;;;;;8.27;4.67;;;;;;;;;;5008621;28;20206;-34
2023/01/11 10:02:58;;;;;;;8.77;4.53;;;;;;;;;;5013803;28;20219;-42
2023/01/11 10:05:38;;;;;;;9.57;4.37;;;;;;;;;;5013519;28;20265;-36
2023/01/11 10:08:16;;;;;;;8.70;4.67;;;;;;;;;;5008473;28;20211;-34
2023/01/11 10:10:53;;;;;;;8.27;4.57;;;;;;;;;;5012049;28;20206;-38
2023/01/11 10:13:27;;;;;;;7.93;4.87;;;;;;;;;;5003069;28;20207;-35
2023/01/11 10:16:02;;;;;;;6.90;4.70;;;;;;;;;;5007481;28;20245;-35
2023/01/11 10:18:47;;;;;;;7.20;4.83;;;;;;;;;;5010625;28;20203;-37
2023/01/11 10:21:18;;;;;;;5.93;4.80;;;;;;;;;;5009106;28;20273;-39
2023/01/11 10:23:49;;;;;;;7.80;4.97;;;;;;;;;;5014589;28;20203;-37
2023/01/11 10:26:25;;;;;;;8.93;5.30;;;;;;;;;;5012865;28;20226;-34
2023/01/11 10:29:09;;;;;;;7.03;4.67;;;;;;;;;;5002310;28;20290;-35
2023/01/11 10:31:53;;;;;;;10.03;5.00;;;;;;;;;;5005041;28;20266;-34
2023/01/11 10:34:40;;;;;;;9.97;5.53;;;;;;;;;;5012624;28;20211;-37
2023/01/11 10:37:33;;;;;;;9.37;6.20;;;;;;;;;;4997456;28;20199;-33
2023/01/11 10:40:28;;;;;;;7.17;4.80;;;;;;;;;;5005424;28;20277;-33
2023/01/11 10:43:02;;;;;;;8.97;5.40;;;;;;;;;;4999155;28;20227;-37
2023/01/11 10:45:37;;;;;;;8.57;5.40;;;;;;;;;;5008404;28;20195;-34
2023/01/11 10:48:07;;;;;;;7.53;5.00;;;;;;;;;;5012268;28;20207;-32
2023/01/11 10:50:37;;;;;;;8.37;5.87;;;;;;;;;;4999003;28;20204;-32
2023/01/11 10:53:08;;;;;;;8.23;5.50;;;;;;;;;;5010735;28;20206;-33
2023/01/11 10:55:42;;;;;;;8.87;6.00;;;;;;;;;;5000719;28;20231;-35
2023/01/11 10:58:18;;;;;;;14.27;8.20;;;;;;;;;;5004867;28;20211;-31
2023/01/11 11:00:52;;;;;;;17.47;11.40;;;;;;;;;;5004743;28;20238;-33
2023/01/11 11:03:40;;;;;;;7.07;5.63;;;;;;;;;;4993603;28;20231;-35
2023/01/11 11:06:08;;;;;;;4.37;3.17;;;;;;;;;;5005466;28;20225;-39
2023/01/11 11:08:38;;;;;;;4.73;3.13;;;;;;;;;;4993153;28;20219;-33
2023/01/11 11:11:08;;;;;;;3.37;2.23;;;;;;;;;;4992047;28;20342;-33
2023/01/11 11:13:40;;;;;;;3.23;2.57;;;;;;;;;;4997030;28;20211;-37
2023/01/11 11:16:12;;;;;;;3.20;1.90;;;;;;;;;;4993851;28;20218;-39
2023/01/11 11:18:39;;;;;;;2.37;1.70;;;;;;;;;;5006827;28;20211;-35
2023/01/11 11:21:11;;;;;;;3.27;2.20;;;;;;;;;;5006326;28;20640;-37
2023/01/11 11:23:38;;;;;;;1.27;1.17;;;;;;;;;;5005150;28;20204;-39
2023/01/11 11:26:07;;;;;;;2.40;2.20;;;;;;;;;;5005650;28;20203;-36
2023/01/11 11:28:35;;;;;;;2.20;1.60;;;;;;;;;;5005142;28;20208;-37
2023/01/11 11:31:03;;;;;;;3.43;1.00;;;;;;;;;;5006344;28;20231;-37
2023/01/11 11:33:34;;;;;;;0.57;0.57;;;;;;;;;;5012141;28;20210;-37
2023/01/11 11:36:03;;;;;;;1.47;0.77;;;;;;;;;;5009374;28;20393;-36
2023/01/11 11:38:31;;;;;;;1.00;1.00;;;;;;;;;;4998906;28;20298;-39
2023/01/11 11:41:05;;;;;;;1.30;1.07;;;;;;;;;;5015443;28;20230;-39
2023/01/11 11:43:32;;;;;;;1.70;1.00;;;;;;;;;;5009079;28;20212;-34
2023/01/11 11:46:00;;;;;;;1.10;1.00;;;;;;;;;;5014929;28;20658;-37
2023/01/11 11:48:30;;;;;;;4.37;0.90;;;;;;;;;;5015433;28;20203;-33
2023/01/11 11:50:59;;;;;;;1.23;0.80;;;;;;;;;;5016144;28;20235;-38
2023/01/11 11:53:44;;;;;;;0.80;0.80;;;;;;;;;;5010974;28;20210;-38
2023/01/11 11:56:17;;;;;;;0.90;0.90;;;;;;;;;;5011324;28;20211;-36
2023/01/11 11:58:44;;;;;;;0.63;0.63;;;;;;;;;;5008933;28;20200;-35
2023/01/11 12:01:21;;;;;;;0.83;0.83;;;;;;;;;;5012289;28;20289;-38
2023/01/11 12:03:49;;;;;;;0.67;0.60;;;;;;;;;;5015478;28;20211;-39
2023/01/11 12:06:21;;;;;;;0.90;0.90;;;;;;;;;;5005533;28;20216;-33
2023/01/11 12:08:49;;;;;;;2.63;1.40;;;;;;;;;;5009306;28;20210;-36
2023/01/11 12:11:19;;;;;;;4.90;1.77;;;;;;;;;;5015091;28;20285;-36
2023/01/11 12:13:57;;;;;;;3.70;2.33;;;;;;;;;;4999862;28;20665;-34
2023/01/11 12:16:30;;;;;;;12.77;8.97;;;;;;;;;;5007223;28;20211;-32
2023/01/11 12:18:57;;;;;;;7.80;5.60;;;;;;;;;;5014602;28;20192;-35
2023/01/11 12:21:28;;;;;;;3.60;2.20;;;;;;;;;;5014029;28;20227;-36
2023/01/11 12:24:09;;;;;;;3.33;1.90;;;;;;;;;;5005535;28;20200;-38
2023/01/11 12:26:40;;;;;;;2.20;1.63;;;;;;;;;;5008115;28;20211;-34
2023/01/11 12:29:21;;;;;;;2.20;1.47;;;;;;;;;;5003086;28;20426;-33
2023/01/11 12:32:03;;;;;;;4.07;1.90;;;;;;;;;;5014371;28;20237;-39
2023/01/11 12:34:35;;;;;;;2.60;1.80;;;;;;;;;;5014501;28;20199;-33
2023/01/11 12:37:10;;;;;;;1.80;1.20;;;;;;;;;;5008632;28;20228;-33
2023/01/11 12:39:41;;;;;;;1.50;1.40;;;;;;;;;;5006190;28;20552;-33
2023/01/11 12:42:21;;;;;;;1.10;1.00;;;;;;;;;;5014323;28;20698;-33
2023/01/11 12:44:55;;;;;;;1.10;1.10;;;;;;;;;;5004272;28;20218;-35
2023/01/11 12:47:38;;;;;;;0.97;0.83;;;;;;;;;;5013641;28;20201;-29
2023/01/11 12:50:10;;;;;;;1.10;0.80;;;;;;;;;;5013639;28;20184;-33
2023/01/11 12:52:54;;;;;;;0.60;0.60;;;;;;;;;;5004400;28;20404;-35
2023/01/11 12:55:40;;;;;;;0.60;0.60;;;;;;;;;;5010021;28;20385;-38
2023/01/11 12:58:10;;;;;;;0.33;0.30;;;;;;;;;;5009894;28;20211;-37
2023/01/11 13:00:58;;;;;;;0.50;0.50;;;;;;;;;;5007579;28;20267;-37
2023/01/11 13:03:50;;;;;;;0.40;0.40;;;;;;;;;;4986518;28;20199;-35
2023/01/11 13:06:20;;;;;;;0.50;0.50;;;;;;;;;;5006612;28;20221;-39
2023/01/11 13:08:56;;;;;;;0.87;0.60;;;;;;;;;;5005346;28;20287;-34
2023/01/11 13:11:35;;;;;;;1.60;0.60;;;;;;;;;;4999364;28;20231;-34
2023/01/11 13:14:08;;;;;;;2.83;2.60;;;;;;;;;;4998938;28;20283;-35
2023/01/11 13:16:52;;;;;;;0.90;0.90;;;;;;;;;;5011337;28;20218;-35
2023/01/11 13:19:21;;;;;;;1.07;1.07;;;;;;;;;;5009574;28;20542;-36
2023/01/11 13:21:52;;;;;;;0.57;0.57;;;;;;;;;;5009133;28;20229;-38
2023/01/11 13:24:25;;;;;;;0.77;0.77;;;;;;;;;;5007912;28;20232;-38
2023/01/11 13:26:52;;;;;;;0.73;0.50;;;;;;;;;;5007283;28;20199;-31
2023/01/11 13:29:24;;;;;;;0.50;0.50;;;;;;;;;;5005215;28;20203;-40
2023/01/11 13:31:53;;;;;;;0.50;0.50;;;;;;;;;;5010236;28;20219;-34
2023/01/11 13:34:23;;;;;;;2.17;0.40;;;;;;;;;;5013030;28;20199;-38
2023/01/11 13:36:54;;;;;;;0.43;0.40;;;;;;;;;;5008885;28;20227;-38
2023/01/11 13:39:27;;;;;;;0.27;0.27;;;;;;;;;;5000636;28;20215;-38
2023/01/11 13:41:56;;;;;;;0.50;0.50;;;;;;;;;;5005113;28;20237;-34
2023/01/11 13:44:24;;;;;;;0.73;0.70;;;;;;;;;;5003033;28;20204;-39
2023/01/11 13:46:56;;;;;;;1.00;0.47;;;;;;;;;;5012907;28;20207;-33
2023/01/11 13:49:35;;;;;;;0.40;0.40;;;;;;;;;;5012617;28;20204;-33
2023/01/11 13:52:05;;;;;;;0.50;0.50;;;;;;;;;;5005043;28;20535;-32
2023/01/11 13:54:37;;;;;;;1.03;0.40;;;;;;;;;;5011812;28;20670;-37
2023/01/11 13:57:05;;;;;;;0.70;0.70;;;;;;;;;;5013456;28;20218;-33
2023/01/11 13:59:35;;;;;;;0.80;0.80;;;;;;;;;;5001344;28;20208;-37
2023/01/11 14:02:05;;;;;;;0.40;0.40;;;;;;;;;;5011964;28;20223;-31
2023/01/11 14:04:36;;;;;;;0.60;0.60;;;;;;;;;;5006242;28;20203;-34
2023/01/11 14:07:09;;;;;;;0.60;0.60;;;;;;;;;;5012874;28;20206;-37
2023/01/11 14:09:45;;;;;;;0.70;0.70;;;;;;;;;;5012362;28;20200;-35
2023/01/11 14:12:18;;;;;;;1.43;0.60;;;;;;;;;;5009126;28;20226;-37
2023/01/11 14:14:55;;;;;;;0.63;0.57;;;;;;;;;;4998085;28;20199;-33
2023/01/11 14:17:29;;;;;;;1.00;0.80;;;;;;;;;;5008635;28;20230;-34
2023/01/11 14:20:00;;;;;;;0.60;0.60;;;;;;;;;;5012699;28;20195;-37
2023/01/11 14:22:33;;;;;;;0.50;0.50;;;;;;;;;;5001590;28;20227;-40
2023/01/11 14:25:08;;;;;;;0.97;0.60;;;;;;;;;;5012222;28;20213;-34
2023/01/11 14:27:46;;;;;;;0.87;0.80;;;;;;;;;;5011338;28;20202;-32
2023/01/11 14:30:33;;;;;;;0.60;0.60;;;;;;;;;;5001916;28;20208;-34
2023/01/11 14:33:25;;;;;;;0.90;0.90;;;;;;;;;;5006664;28;20191;-36
2023/01/11 14:36:01;;;;;;;1.73;0.70;;;;;;;;;;5002607;28;20230;-33
2023/01/11 14:38:36;;;;;;;1.70;0.60;;;;;;;;;;5005996;28;20199;-35
2023/01/11 14:41:10;;;;;;;0.50;0.50;;;;;;;;;;5013209;28;20229;-36
2023/01/11 14:43:42;;;;;;;0.73;0.67;;;;;;;;;;5004951;28;20203;-39
2023/01/11 14:46:16;;;;;;;0.73;0.73;;;;;;;;;;5003836;28;20203;-33
2023/01/11 14:48:48;;;;;;;0.60;0.60;;;;;;;;;;5008876;28;20333;-39
2023/01/11 14:51:21;;;;;;;1.17;0.90;;;;;;;;;;5006767;28;20220;-38
2023/01/11 14:53:53;;;;;;;0.70;0.70;;;;;;;;;;5002704;28;20202;-36
2023/01/11 14:56:38;;;;;;;1.77;0.90;;;;;;;;;;5007794;28;20232;-35
2023/01/11 14:59:05;;;;;;;0.60;0.60;;;;;;;;;;5004498;28;20204;-34
2023/01/11 15:01:47;;;;;;;0.40;0.40;;;;;;;;;;5005755;28;20223;-34
2023/01/11 15:04:21;;;;;;;0.50;0.50;;;;;;;;;;5012047;28;20211;-34
2023/01/11 15:06:54;;;;;;;0.67;0.67;;;;;;;;;;5001410;28;20215;-37
2023/01/11 15:09:35;;;;;;;0.80;0.80;;;;;;;;;;5009654;28;20200;-35
2023/01/11 15:12:13;;;;;;;0.70;0.70;;;;;;;;;;5011761;28;20237;-36
2023/01/11 15:14:40;;;;;;;2.20;0.80;;;;;;;;;;5008578;28;20215;-31
2023/01/11 15:20:06;;;;;;;0.90;0.90;;;;;;;;;;5015582;28;20191;-36
2023/01/11 15:22:34;;;;;;;0.70;0.70;;;;;;;;;;5011347;28;20227;-37
2023/01/11 15:25:03;;;;;;;0.90;0.90;;;;;;;;;;5008433;28;20211;-37
2023/01/11 15:27:35;;;;;;;0.87;0.80;;;;;;;;;;5018402;28;20205;-34
2023/01/11 15:30:03;;;;;;;0.87;0.87;;;;;;;;;;5004466;28;20294;-39